Terminal Aerodrome Forecast
Issued by NWS

Home | Current Version | Previous Version | Graphics & Text | Print | Product List | Glossary On
Versions: 1 2 3 4 5 6 7 8 9 10 11 12 13 14 15
483
FTUS45 KGGW 241120
TAFSDY
TAF
KSDY 241120Z 2412/2512 35008KT P6SM -SHRA OVC008
     FM241500 33009KT 6SM SHRA OVC005
     FM241900 33017KT 6SM SHRA OVC007
     FM250000 32022G32KT 5SM SHRA OVC009
     FM250600 31021G31KT P6SM -SHRA OVC025
     FM250900 31017G25KT P6SM VCSH SCT100=

USA.gov is the U.S. government's official web portal to all federal, state and local government web resources and services.